• Join FlightAware (Why Join?)
  • Login
  • US Flag 
06:30AM EDT


 

Airport Tracker/Info


-or-


 

Live Flight TrackerFlight Track Log ✈ JBU296 ✈ 16-Apr-2013 ✈ KLGB - KSEA

Flight Track Log - Related Links

Times and Time Zones

All times are in EDT time to prevent confusion due to time zone crossing. See the JBU296 flight status page for this flight to view local times or setup timezone preferences in your user account.

Time Position Orientation Groundspeed Altitude Reporting Facility
EDT Latitude Longitude Course Direction KTS MPH feet Rate Location/Type
09:13PM 33.8200 -118.1540 121° Southeast 149 171 300  Level FlightAware
09:14PM 33.8310 -118.1670 316° Northwest 139 160 1,500 2,400 Climbing FlightAware
09:14PM 33.8380 -118.1780 307° West 158 182 2,000 1,320 Climbing FlightAware
09:15PM 33.8450 -118.2150 283° West 212 244 2,700 2,280 Climbing FlightAware
09:15PM 33.8520 -118.2650 280° West 216 249 5,000 2,700 Climbing FlightAware
09:16PM 33.8570 -118.3000 280° West 237 273 5,900 1,800 Climbing FlightAware
09:16PM 33.8640 -118.3120 305° West 248 285 6,200 3,000 Climbing FlightAware
09:16PM 33.8780 -118.3250 322° Northwest 238 274 7,200 4,080 Climbing FlightAware
09:17PM 33.9010 -118.3390 333° Northwest 222 255 9,000 3,300 Climbing FlightAware
09:17PM 33.9430 -118.3630 335° Northwest 231 266 11,100 2,100 Climbing FlightAware
09:18PM 33.9860 -118.3880 334° Northwest 277 319 12,000 1,260 Climbing FlightAware
09:19PM 34.0390 -118.4190 334° Northwest 316 364 12,900 1,920 Climbing FlightAware
09:20PM 34.0920 -118.4490 335° Northwest 322 371 14,700 2,520 Climbing FlightAware
09:20PM 34.1510 -118.4830 335° Northwest 331 381 16,400 2,100 Climbing FlightAware
09:21PM 34.2010 -118.5120 334° Northwest 343 395 17,500 2,040 Climbing FlightAware
09:22PM 34.2730 -118.5540 334° Northwest 346 398 19,400 2,100 Climbing FlightAware
09:22PM 34.3350 -118.5890 335° Northwest 356 410 20,700 2,280 Climbing FlightAware
09:23PM 34.3980 -118.6260 334° Northwest 342 394 22,700 1,860 Climbing FlightAware
09:24PM 34.4550 -118.6590 334° Northwest 357 411 23,400 1,320 Climbing FlightAware
09:24PM 34.5050 -118.6880 334° Northwest 361 415 24,300 1,620 Climbing FlightAware
09:25PM 34.5800 -118.7310 335° Northwest 366 421 25,600 840 Climbing FlightAware
09:26PM 34.6360 -118.7640 334° Northwest 366 421 25,600 1,200 Level FlightAware
09:27PM 34.7120 -118.8080 335° Northwest 377 434 27,400 1,560 Climbing FlightAware
09:27PM 34.7820 -118.8490 334° Northwest 380 437 28,000 1,020 Climbing FlightAware
09:28PM 34.8570 -118.8830 340° North 403 464 28,900 1,200 Climbing FlightAware
09:29PM 34.9470 -118.9170 343° North 404 465 29,900 960 Climbing FlightAware
09:30PM 35.0290 -118.9480 343° North 402 463 30,500 1,080 Climbing FlightAware
09:30PM 35.0910 -118.9720 342° North 392 451 31,500 1,320 Climbing FlightAware
09:31PM 35.1640 -119.0010 342° North 389 448 32,200 1,260 Climbing FlightAware
09:32PM 35.2490 -119.0340 342° North 380 437 33,300 1,200 Climbing FlightAware
09:32PM 35.3150 -119.0590 343° North 375 432 34,000 900 Climbing FlightAware
09:33PM 35.3860 -119.0870 342° North 374 430 34,600 720 Climbing FlightAware
09:34PM 35.4550 -119.1140 342° North 379 436 35,000 540 Climbing FlightAware
09:35PM 35.5300 -119.1440 342° North 385 443 35,400 480 Climbing FlightAware
09:35PM 35.5970 -119.1700 342° North 390 449 35,700 360 Climbing FlightAware
09:36PM 35.6800 -119.2020 343° North 397 457 36,000 180 Climbing FlightAware
09:37PM 35.7520 -119.2310 342° North 408 470 36,000  Level FlightAware
09:37PM 35.8250 -119.2590 343° North 418 481 36,000  Level FlightAware
09:38PM 35.8940 -119.2870 342° North 404 465 36,000  Level FlightAware
09:39PM 35.9760 -119.3190 342° North 405 466 36,000  Level FlightAware
09:39PM 36.0400 -119.3440 342° North 407 468 36,000  Level FlightAware
09:41PM 36.1640 -119.3940 342° North 403 464 36,000  Level FlightAware
09:41PM 36.2480 -119.4270 342° North 401 461 36,000  Level FlightAware
09:42PM 36.3170 -119.4550 342° North 399 459 36,000 -120 Level FlightAware
09:43PM 36.3960 -119.4860 342° North 400 460 35,900  Descending FlightAware
09:44PM 36.5490 -119.5480 342° North 406 467 36,000  Climbing FlightAware
09:45PM 36.6190 -119.5760 342° North 407 468 36,000  Level FlightAware
09:45PM 36.6960 -119.6070 342° North 412 474 36,000  Level FlightAware
09:46PM 36.7720 -119.6380 342° North 418 481 36,000 60 Level FlightAware
09:47PM 36.8460 -119.6680 342° North 421 484 36,100  Climbing FlightAware
09:48PM 36.9580 -119.7140 342° North 415 478 36,100  Level FlightAware
09:48PM 37.0230 -119.7400 342° North 413 475 36,100  Level FlightAware
09:49PM 37.1120 -119.7760 342° North 401 461 36,100 -120 Level FlightAware
09:50PM 37.1820 -119.8050 342° North 395 455 36,000 -180 Descending FlightAware
09:51PM 37.2690 -119.8410 342° North 392 451 35,900  Descending FlightAware
09:52PM 37.3560 -119.8760 342° North 397 457 36,000 60 Climbing FlightAware
09:52PM 37.4120 -119.8990 342° North 403 464 36,000  Level FlightAware
09:54PM 37.5780 -119.9680 342° North 391 450 36,000  Level FlightAware
09:54PM 37.6470 -119.9970 342° North 399 459 36,000  Level FlightAware
09:55PM 37.7140 -120.0250 342° North 397 457 36,000  Level FlightAware
09:56PM 37.7900 -120.0560 342° North 400 460 36,000  Level FlightAware
09:56PM 37.8560 -120.0840 341° North 402 463 36,000  Level FlightAware
09:57PM 37.9290 -120.1110 344° North 399 459 36,000  Level FlightAware
09:58PM 38.0050 -120.1340 347° North 405 466 36,000  Level FlightAware
09:58PM 38.0870 -120.1590 347° North 406 467 36,000 -120 Level FlightAware
09:59PM 38.1790 -120.1870 347° North 412 474 35,900  Descending FlightAware
10:00PM 38.2470 -120.2090 346° North 415 478 36,000 60 Climbing FlightAware
10:01PM 38.3360 -120.2360 347° North 415 478 36,000  Level FlightAware
10:02PM 38.4380 -120.2680 346° North 414 476 36,000  Level FlightAware
10:02PM 38.5010 -120.2870 347° North 414 476 36,000  Level FlightAware
10:03PM 38.5960 -120.3170 346° North 413 475 36,000  Level FlightAware
10:04PM 38.6760 -120.3420 346° North 412 474 36,000  Level FlightAware
10:04PM 38.7430 -120.3630 346° North 413 475 36,000  Level FlightAware
10:05PM 38.8270 -120.3890 346° North 407 468 36,000  Level FlightAware
10:06PM 38.8970 -120.4110 346° North 405 466 36,000  Level FlightAware
10:06PM 38.9590 -120.4310 346° North 400 460 36,000  Level FlightAware
10:07PM 39.0430 -120.4570 346° North 403 464 36,000 -120 Level FlightAware
10:08PM 39.1210 -120.4820 346° North 406 467 35,900  Descending FlightAware
10:08PM 39.1870 -120.5030 346° North 406 467 36,000  Climbing FlightAware
10:13PM 39.6370 -120.6470 346° North 393 452 35,900  Descending FlightAware
10:16PM 39.9950 -120.7630 346° North 399 459 36,000  Climbing FlightAware
10:16PM 40.0444 -120.7761 346° North 396 456 36,000  Level Seattle Center
10:17PM 40.1042 -120.7981 344° North 397 457 36,000  Level Oakland Center
10:18PM 40.2122 -120.8325 346° North 399 459 36,000  Level Oakland Center
10:19PM 40.3203 -120.8694 345° North 407 468 36,000  Level Oakland Center
10:20PM 40.4281 -120.9039 346° North 403 464 36,000  Level Oakland Center
10:21PM 40.5347 -120.9408 345° North 398 458 36,000  Level Oakland Center
10:22PM 40.6553 -120.9814 346° North 402 463 36,000  Level Oakland Center
10:22PM 40.6778 -120.9856 352° North 398 458 36,000  Level Seattle Center
10:23PM 40.8067 -121.0289 346° North 398 458 36,000  Level Seattle Center
10:24PM 40.9131 -121.0656 345° North 396 456 36,000  Level Seattle Center
10:25PM 41.0194 -121.1047 344° North 397 457 36,000  Level Seattle Center
10:26PM 41.1208 -121.1619 337° Northwest 396 456 36,000  Level Seattle Center
10:28PM 41.2228 -121.2156 338° Northwest 395 455 36,000 -60 Level Seattle Center
10:29PM 41.3225 -121.2714 337° Northwest 390 449 35,900  Descending Seattle Center
10:30PM 41.4242 -121.3264 338° Northwest 392 451 36,000  Climbing Seattle Center
10:31PM 41.5261 -121.3825 338° Northwest 396 456 36,000  Level Seattle Center
10:32PM 41.6267 -121.4381 338° Northwest 394 453 36,000  Level Seattle Center
10:33PM 41.7264 -121.4933 338° Northwest 389 448 36,000  Level Seattle Center
10:34PM 41.8256 -121.5481 338° Northwest 388 447 36,000  Level Seattle Center
10:35PM 41.9225 -121.6014 338° Northwest 379 436 36,000  Level Seattle Center
10:36PM 42.0194 -121.6542 338° Northwest 378 435 36,000  Level Seattle Center
10:37PM 42.1356 -121.7206 337° Northwest 383 441 36,000  Level Seattle Center
10:42PM 42.7320 -121.8600 337° Northwest 377 434 36,000  Level FlightAware
10:43PM 42.7900 -121.8740 350° North 377 434 36,000  Level FlightAware
10:44PM 42.8340 -121.8850 350° North 377 434 36,000  Level FlightAware
10:44PM 42.8920 -121.8990 350° North 377 434 36,000  Level FlightAware
10:45PM 42.9510 -121.9130 350° North 377 434 36,000  Level FlightAware
10:46PM 43.0090 -121.9270 350° North 377 434 36,000  Level FlightAware
10:46PM 43.0820 -121.9450 350° North 377 434 36,000  Level FlightAware
10:47PM 43.1400 -121.9590 350° North 377 434 36,000  Level FlightAware
10:48PM 43.2610 -121.9820 352° North 368 423 36,000  Level FlightAware
10:48PM 43.3280 -121.9980 350° North 367 422 36,000  Level FlightAware
10:49PM 43.4000 -122.0160 350° North 367 422 36,000  Level FlightAware
10:50PM 43.4760 -122.0330 351° North 367 422 36,000  Level FlightAware
10:50PM 43.5410 -122.0480 351° North 368 423 36,000  Level FlightAware
10:51PM 43.6190 -122.0670 350° North 367 422 36,000  Level FlightAware
10:52PM 43.6870 -122.0830 350° North 364 419 36,000  Level FlightAware
10:53PM 43.7580 -122.1010 350° North 361 415 36,000  Level FlightAware
10:53PM 43.8240 -122.1160 351° North 359 413 36,000  Level FlightAware
10:54PM 43.8910 -122.1320 350° North 359 413 36,000  Level FlightAware
10:55PM 43.9540 -122.1470 350° North 358 412 36,000  Level FlightAware
10:55PM 44.0260 -122.1640 350° North 359 413 36,000  Level FlightAware
10:56PM 44.1020 -122.1830 350° North 358 412 36,000  Level FlightAware
10:57PM 44.1680 -122.1990 350° North 357 411 36,000  Level FlightAware
10:57PM 44.2320 -122.2140 350° North 358 412 36,000  Level FlightAware
10:58PM 44.3070 -122.2320 350° North 358 412 36,000  Level FlightAware
10:59PM 44.3720 -122.2480 350° North 356 410 36,000  Level FlightAware
11:00PM 44.4420 -122.2650 350° North 356 410 36,000  Level FlightAware
11:00PM 44.5110 -122.2820 350° North 353 406 36,000  Level FlightAware
11:01PM 44.5710 -122.2970 350° North 354 407 36,000  Level FlightAware
11:02PM 44.6450 -122.3150 350° North 353 406 36,000  Level FlightAware
11:02PM 44.7110 -122.3310 350° North 354 407 36,000  Level FlightAware
11:03PM 44.7840 -122.3490 350° North 354 407 36,000  Level FlightAware
11:04PM 44.8490 -122.3650 350° North 353 406 36,000  Level FlightAware
11:04PM 44.9130 -122.3810 350° North 351 404 36,000  Level FlightAware
11:05PM 44.9830 -122.3990 350° North 346 398 36,000  Level FlightAware
11:06PM 45.0450 -122.4140 350° North 345 397 36,000  Level FlightAware
11:07PM 45.1170 -122.4320 350° North 344 396 36,000  Level FlightAware
11:07PM 45.1810 -122.4480 350° North 344 396 36,000  Level FlightAware
11:08PM 45.2390 -122.4630 350° North 343 395 36,000  Level FlightAware
11:09PM 45.2980 -122.4780 350° North 343 395 36,000  Level FlightAware
11:09PM 45.3730 -122.4960 350° North 345 397 36,000  Level FlightAware
11:10PM 45.4450 -122.5140 350° North 348 400 36,000  Level FlightAware
11:11PM 45.4940 -122.5280 349° North 348 400 36,000  Level FlightAware
11:11PM 45.5470 -122.5430 349° North 348 400 36,000 -300 Level FlightAware
11:12PM 45.6350 -122.5630 351° North 346 398 35,600 -780 Descending FlightAware
11:13PM 45.7090 -122.5820 350° North 352 405 34,900 -1,020 Descending FlightAware
11:14PM 45.7780 -122.5990 350° North 355 409 34,100 -1,020 Descending FlightAware
11:14PM 45.8440 -122.6150 350° North 352 405 33,500 -1,020 Descending FlightAware
11:15PM 45.9260 -122.6360 350° North 357 411 32,600 -960 Descending FlightAware
11:16PM 45.9940 -122.6530 350° North 358 412 32,000 -480 Descending FlightAware
11:16PM 46.0500 -122.6670 350° North 358 412 32,000  Level FlightAware
11:17PM 46.1050 -122.6810 350° North 358 412 32,000  Level FlightAware
11:18PM 46.1750 -122.6990 350° North 358 412 32,000  Level FlightAware
11:19PM 46.2300 -122.7130 350° North 358 412 32,000  Level FlightAware
11:19PM 46.2860 -122.7270 350° North 358 412 32,000  Level FlightAware
11:20PM 46.3410 -122.7410 350° North 358 412 32,000  Level FlightAware
11:21PM 46.3960 -122.7550 350° North 358 412 32,000  Level FlightAware
11:21PM 46.4660 -122.7730 350° North 358 412 32,000  Level FlightAware
11:22PM 46.5210 -122.7870 350° North 358 412 32,000  Level FlightAware
11:23PM 46.5770 -122.8010 350° North 358 412 32,000  Level FlightAware
11:23PM 46.6320 -122.8160 349° North 358 412 32,000  Level FlightAware
11:24PM 46.6880 -122.8300 350° North 358 412 32,000  Level FlightAware
11:25PM 46.7570 -122.8480 350° North 358 412 32,000 -15,960 Level FlightAware
11:25PM 46.7811 -122.7061 350° North 285 328 13,400 -23,640 Descending Seattle Center
11:26PM 46.8253 -122.6908 13° North 283 326 12,700 -1,320 Descending Seattle Center
11:26PM 46.8525 -122.6611 37° Northeast 299 344 12,100 -1,620 Descending Seattle Center
11:27PM 46.8886 -122.6083 45° Northeast 296 341 11,100 -1,500 Descending Seattle Center
11:27PM 46.9097 -122.5786 44° Northeast 293 337 10,600 -1,440 Descending Seattle Center
11:28PM 46.9411 -122.5347 44° Northeast 260 299 9,700 -1,380 Descending Seattle Center
11:28PM 46.9633 -122.5072 40° Northeast 269 310 9,200 -1,380 Descending Seattle Center
11:29PM 47.0000 -122.4606 41° Northeast 257 296 8,300 -1,320 Descending Seattle Center
11:29PM 47.0167 -122.4383 42° Northeast 259 298 7,900 -1,560 Descending Seattle Center
11:30PM 47.0664 -122.3983 29° Northeast 264 304 6,600 -1,620 Descending Seattle Center
11:30PM 47.0794 -122.3869 31° Northeast 262 302 6,300 -600 Descending Seattle Center
11:31PM 47.1272 -122.3489 28° Northeast 245 282 6,000 -600 Descending Seattle Center
11:31PM 47.1481 -122.3289 33° Northeast 234 269 5,700 -1,140 Descending Seattle Center
11:32PM 47.1764 -122.3153 18° North 219 252 5,000 -1,200 Descending Seattle Center
11:32PM 47.2044 -122.3139 North 215 247 4,500 -900 Descending Seattle Center
11:33PM 47.2428 -122.3147 359° North 213 245 4,000 -720 Descending Seattle Center
11:33PM 47.2625 -122.3122 North 210 242 3,800 -900 Descending Seattle Center
11:34PM 47.3047 -122.3133 359° North 183 211 3,000 -1,020 Descending Seattle Center
11:34PM 47.3150 -122.3125 North 191 220 2,800 -900 Descending Seattle Center
11:35PM 47.3508 -122.3111 North 162 186 2,100 -900 Descending Seattle Center
11:35PM 47.3603 -122.3119 357° North 168 193 1,900 -720 Descending Seattle Center
11:36PM 47.3864 -122.3111 North 128 147 1,400 -720 Descending Seattle Center
11:36PM 47.3947 -122.3119 356° North 131 151 1,200 -720 Descending Seattle Center
11:37PM 47.4267 -122.3117 360° North 126 145 600 -480 Descending Seattle Center
11:38PM 47.4653 -122.3125 359° North 127 146 300 -300 Descending Seattle Center
11:40PM 47.4499 -122.3118 North  Level Estimated